createdAt,value
2022-11-28T00:01:24.017Z,5.20
2022-11-28T00:03:50.571Z,4.82
2022-11-28T00:06:18.084Z,5.03
2022-11-28T00:08:45.272Z,4.65
2022-11-28T00:11:13.724Z,4.80
2022-11-28T00:13:40.505Z,4.72
2022-11-28T00:16:09.328Z,5.38
2022-11-28T00:18:35.931Z,4.80
2022-11-28T00:21:08.298Z,4.80
2022-11-28T00:23:34.773Z,5.38
2022-11-28T00:26:06.088Z,4.45
2022-11-28T00:28:44.868Z,4.43
2022-11-28T00:31:16.163Z,4.88
2022-11-28T00:33:42.866Z,4.03
2022-11-28T00:36:34.360Z,4.50
2022-11-28T00:39:00.804Z,4.90
2022-11-28T00:41:29.139Z,3.88
2022-11-28T00:43:55.908Z,4.38
2022-11-28T00:46:23.333Z,4.57
2022-11-28T00:48:50.344Z,4.70
2022-11-28T00:51:23.310Z,4.30
2022-11-28T00:53:57.736Z,4.60
2022-11-28T00:56:30.857Z,4.28
2022-11-28T00:58:57.551Z,4.40
2022-11-28T01:01:27.929Z,4.65
2022-11-28T01:04:08.093Z,4.78
2022-11-28T01:06:40.348Z,4.55
2022-11-28T01:09:16.671Z,4.72
2022-11-28T01:14:11.989Z,4.22
2022-11-28T01:16:58.867Z,5.00
2022-11-28T01:19:25.292Z,4.47
2022-11-28T01:21:51.689Z,5.13
2022-11-28T01:25:07.126Z,5.20
2022-11-28T01:27:33.535Z,5.07
2022-11-28T01:29:59.957Z,5.18
2022-11-28T01:32:26.341Z,5.43
2022-11-28T01:34:52.803Z,4.80
2022-11-28T01:37:19.241Z,4.55
2022-11-28T01:39:45.687Z,5.38
2022-11-28T01:42:21.165Z,4.95
2022-11-28T01:44:47.758Z,4.60
2022-11-28T01:47:17.762Z,4.50
2022-11-28T01:49:47.094Z,5.05
2022-11-28T01:52:17.275Z,5.18
2022-11-28T01:55:15.490Z,4.38
2022-11-28T01:57:42.680Z,5.20
2022-11-28T02:00:12.347Z,4.40
2022-11-28T02:02:40.812Z,5.03
2022-11-28T02:05:08.171Z,4.55
2022-11-28T02:07:35.916Z,4.55
2022-11-28T02:10:05.689Z,4.35
2022-11-28T02:12:51.891Z,5.50
2022-11-28T02:15:36.690Z,5.72
2022-11-28T02:18:23.004Z,5.55
2022-11-28T02:20:55.490Z,5.35
2022-11-28T02:23:57.449Z,5.38
2022-11-28T02:26:45.191Z,4.60
2022-11-28T02:29:39.990Z,4.22
2022-11-28T02:32:16.337Z,4.20
2022-11-28T02:34:56.862Z,4.25
2022-11-28T02:37:26.834Z,3.78
2022-11-28T02:40:27.351Z,4.03
2022-11-28T02:43:11.695Z,3.70
2022-11-28T02:45:53.172Z,3.60
2022-11-28T02:48:49.900Z,2.90
2022-11-28T02:51:24.611Z,3.35
2022-11-28T02:53:55.348Z,3.20
2022-11-28T02:56:24.789Z,3.10
2022-11-28T02:58:51.288Z,3.25
2022-11-28T03:01:44.311Z,2.78
2022-11-28T03:04:31.655Z,3.10
2022-11-28T03:07:39.295Z,3.17
2022-11-28T03:10:43.137Z,3.38
2022-11-28T03:13:41.175Z,2.92
2022-11-28T03:16:07.771Z,2.80
2022-11-28T03:18:58.058Z,3.05
2022-11-28T03:21:38.521Z,2.95
2022-11-28T03:24:13.496Z,3.10
2022-11-28T03:26:51.353Z,3.17
2022-11-28T03:29:23.742Z,4.00
2022-11-28T03:31:59.066Z,3.83
2022-11-28T03:34:36.975Z,4.30
2022-11-28T03:37:10.161Z,3.97
2022-11-28T03:39:40.227Z,3.97
2022-11-28T03:42:24.533Z,4.18
2022-11-28T03:45:02.730Z,4.60
2022-11-28T03:47:35.076Z,3.58
2022-11-28T03:50:08.321Z,4.25
2022-11-28T03:52:48.883Z,3.67
2022-11-28T03:55:32.632Z,4.15
2022-11-28T03:58:30.096Z,4.32
2022-11-28T04:01:30.541Z,4.35
2022-11-28T04:04:10.029Z,3.60
2022-11-28T04:06:43.224Z,3.70
2022-11-28T04:09:18.852Z,4.05
2022-11-28T04:11:51.839Z,3.90
2022-11-28T04:14:18.181Z,4.05
2022-11-28T04:16:53.617Z,3.60
2022-11-28T04:19:28.918Z,4.10
2022-11-28T04:22:14.553Z,4.10
2022-11-28T04:24:55.020Z,4.25
2022-11-28T04:27:31.861Z,3.70
2022-11-28T04:30:02.042Z,3.70
2022-11-28T04:33:07.537Z,3.55
2022-11-28T04:35:38.790Z,3.67
2022-11-28T04:38:09.217Z,3.50
2022-11-28T04:41:07.780Z,3.60
2022-11-28T04:43:39.035Z,3.45
2022-11-28T04:46:12.585Z,3.58
2022-11-28T04:48:39.024Z,3.28
2022-11-28T04:51:23.137Z,3.35
2022-11-28T04:53:54.011Z,3.60
2022-11-28T04:57:02.409Z,3.40
2022-11-28T04:59:31.546Z,3.13
2022-11-28T05:02:02.706Z,3.13
2022-11-28T05:04:36.702Z,3.22
2022-11-28T05:07:05.953Z,2.97
2022-11-28T05:09:32.536Z,3.13
2022-11-28T05:12:09.181Z,3.33
2022-11-28T05:14:35.714Z,3.17
2022-11-28T05:17:02.253Z,3.13
2022-11-28T05:19:30.704Z,3.45
2022-11-28T05:22:08.349Z,3.08
2022-11-28T05:24:36.796Z,2.85
2022-11-28T05:27:03.506Z,2.85
2022-11-28T05:29:30.210Z,2.97
2022-11-28T05:32:00.761Z,3.33
2022-11-28T05:34:33.139Z,3.95
2022-11-28T05:36:59.639Z,4.72
2022-11-28T05:39:27.170Z,4.75
2022-11-28T05:42:17.720Z,3.80
2022-11-28T05:45:14.165Z,2.97
2022-11-28T05:47:40.572Z,3.03
2022-11-28T05:50:08.040Z,2.90
2022-11-28T05:52:34.595Z,2.80
2022-11-28T05:55:01.599Z,3.25
2022-11-28T05:57:29.996Z,3.15
2022-11-28T06:00:12.245Z,2.78
2022-11-28T06:02:38.852Z,2.72
2022-11-28T06:05:27.249Z,2.50
2022-11-28T06:07:52.300Z,6.68
2022-11-28T06:10:19.191Z,3.88
2022-11-28T06:12:45.595Z,2.83
2022-11-28T06:15:12.170Z,2.70
2022-11-28T06:17:38.638Z,2.88
2022-11-28T06:20:05.907Z,3.65
2022-11-28T06:22:32.384Z,3.33
2022-11-28T06:24:58.790Z,3.25
2022-11-28T06:27:34.828Z,3.40
2022-11-28T06:30:01.243Z,3.55
2022-11-28T06:32:27.657Z,9.93
2022-11-28T06:34:54.053Z,10.65
2022-11-28T06:37:26.660Z,7.68
2022-11-28T06:39:53.443Z,12.70
2022-11-28T06:42:19.984Z,28.40
2022-11-28T06:45:14.274Z,10.32
2022-11-28T06:47:48.880Z,7.78
2022-11-28T06:50:15.669Z,5.15
2022-11-28T06:52:55.806Z,8.60
2022-11-28T06:55:29.761Z,6.97
2022-11-28T06:57:56.236Z,6.15
2022-11-28T07:00:35.113Z,5.32
2022-11-28T07:03:04.707Z,5.70
2022-11-28T07:05:31.153Z,4.97
2022-11-28T07:07:58.349Z,5.07
2022-11-28T07:10:25.762Z,4.63
2022-11-28T07:13:02.410Z,4.10
2022-11-28T07:15:31.702Z,3.75
2022-11-28T07:18:04.457Z,4.10
2022-11-28T07:20:30.864Z,3.55
2022-11-28T07:22:57.292Z,5.10
2022-11-28T07:25:23.702Z,6.30
2022-11-28T07:27:50.122Z,5.80
2022-11-28T07:30:16.682Z,4.72
2022-11-28T07:32:43.093Z,4.43
2022-11-28T07:35:29.758Z,3.22
2022-11-28T07:37:56.207Z,3.50
2022-11-28T07:40:22.859Z,3.40
2022-11-28T07:42:49.317Z,3.38
2022-11-28T07:45:53.471Z,3.20
2022-11-28T07:48:16.171Z,3.42
2022-11-28T07:50:42.574Z,3.50
2022-11-28T07:53:08.974Z,3.40
2022-11-28T07:55:36.371Z,3.75
2022-11-28T07:58:05.894Z,3.80
2022-11-28T08:00:33.358Z,3.88
2022-11-28T08:02:59.876Z,3.38
2022-11-28T08:05:26.295Z,3.33
2022-11-28T08:07:52.735Z,3.83
2022-11-28T08:10:19.582Z,3.70
2022-11-28T08:12:46.012Z,3.55
2022-11-28T08:15:12.423Z,3.80
2022-11-28T08:17:38.854Z,3.47
2022-11-28T08:20:05.976Z,4.85
2022-11-28T08:22:32.421Z,5.35
2022-11-28T08:24:58.822Z,5.65
2022-11-28T08:27:25.264Z,5.57
2022-11-28T08:29:53.511Z,5.38
2022-11-28T08:32:20.448Z,4.80
2022-11-28T08:34:46.870Z,4.40
2022-11-28T08:37:13.290Z,4.90
2022-11-28T08:39:39.696Z,5.47
2022-11-28T08:42:06.169Z,4.88
2022-11-28T08:44:32.847Z,4.82
2022-11-28T08:46:59.258Z,5.65
2022-11-28T08:49:53.804Z,5.30
2022-11-28T08:52:20.223Z,4.57
2022-11-28T08:54:46.668Z,5.38
2022-11-28T08:57:13.089Z,4.43
2022-11-28T08:59:39.550Z,5.30
2022-11-28T09:02:06.542Z,5.78
2022-11-28T09:04:33.988Z,6.43
2022-11-28T09:07:00.477Z,5.65
2022-11-28T09:09:32.752Z,4.80
2022-11-28T09:11:59.461Z,5.25
2022-11-28T09:14:26.836Z,4.45
2022-11-28T09:16:53.442Z,5.63
2022-11-28T09:19:19.959Z,7.57
2022-11-28T09:21:57.504Z,6.57
2022-11-28T09:24:24.559Z,5.47
2022-11-28T09:26:50.969Z,7.47
2022-11-28T09:29:17.375Z,5.00
2022-11-28T09:31:47.308Z,5.20
2022-11-28T09:34:14.232Z,4.85
2022-11-28T09:36:40.864Z,5.40
2022-11-28T09:39:07.626Z,4.72
2022-11-28T09:41:49.211Z,5.50
2022-11-28T09:44:22.426Z,6.35
2022-11-28T09:46:53.477Z,5.70
2022-11-28T09:50:06.963Z,6.05
2022-11-28T09:53:10.788Z,9.52
2022-11-28T09:55:52.160Z,8.38
2022-11-28T09:58:43.397Z,6.75
2022-11-28T10:01:22.917Z,6.70
2022-11-28T10:04:12.752Z,5.90
2022-11-28T10:06:52.819Z,5.07
2022-11-28T10:09:51.258Z,4.65
2022-11-28T10:12:45.541Z,4.25
2022-11-28T10:15:39.925Z,4.22
2022-11-28T10:18:41.730Z,3.60
2022-11-28T10:21:31.216Z,4.60
2022-11-28T10:24:02.152Z,3.67
2022-11-28T10:26:36.086Z,3.63
2022-11-28T10:29:11.611Z,3.38
2022-11-28T10:31:44.072Z,3.30
2022-11-28T10:34:24.676Z,3.30
2022-11-28T10:37:00.763Z,3.10
2022-11-28T10:39:27.866Z,4.38
2022-11-28T10:42:13.650Z,4.30
2022-11-28T10:45:06.721Z,5.05
2022-11-28T10:47:51.451Z,5.18
2022-11-28T10:50:32.543Z,4.40
2022-11-28T10:53:15.380Z,4.82
2022-11-28T10:55:54.286Z,4.35
2022-11-28T10:58:29.719Z,4.55
2022-11-28T11:00:57.940Z,4.10
2022-11-28T11:03:37.999Z,4.10
2022-11-28T11:06:04.594Z,4.10
2022-11-28T11:08:37.165Z,4.35
2022-11-28T11:11:24.396Z,3.80
2022-11-28T11:14:00.422Z,4.15
2022-11-28T11:16:56.861Z,3.92
2022-11-28T11:19:35.999Z,4.27
2022-11-28T11:22:20.694Z,3.80
2022-11-28T11:25:20.403Z,4.10
2022-11-28T11:27:58.362Z,3.92
2022-11-28T11:30:34.729Z,4.05
2022-11-28T11:35:32.983Z,3.70
2022-11-28T11:38:37.785Z,3.55
2022-11-28T11:41:26.681Z,7.00
2022-11-28T11:43:53.103Z,3.65
2022-11-28T11:46:19.552Z,3.22
2022-11-28T11:48:48.050Z,3.03
2022-11-28T11:51:39.413Z,3.47
2022-11-28T11:54:16.503Z,4.82
2022-11-28T11:56:46.647Z,4.18
2022-11-28T11:59:18.026Z,3.47
2022-11-28T12:01:46.705Z,3.40
2022-11-28T12:04:43.919Z,4.72
2022-11-28T12:07:18.681Z,4.55
2022-11-28T12:09:48.042Z,4.82
2022-11-28T12:12:25.074Z,5.70
2022-11-28T12:14:57.813Z,5.25
2022-11-28T12:17:53.411Z,4.88
2022-11-28T12:20:29.527Z,4.75
2022-11-28T12:23:39.200Z,4.25
2022-11-28T12:26:30.257Z,4.40
2022-11-28T12:29:03.514Z,3.97
2022-11-28T12:31:56.593Z,5.10
2022-11-28T12:34:42.701Z,7.20
2022-11-28T12:37:09.028Z,7.10
2022-11-28T12:39:50.432Z,5.57
2022-11-28T12:42:47.443Z,4.20
2022-11-28T12:45:41.910Z,5.28
2022-11-28T12:48:23.946Z,6.32
2022-11-28T12:51:07.473Z,35.55
2022-11-28T12:54:00.265Z,20.95
2022-11-28T12:56:45.076Z,21.65
2022-11-28T12:59:30.529Z,23.00
2022-11-28T13:02:15.222Z,18.90
2022-11-28T13:05:03.604Z,12.82
2022-11-28T13:07:52.108Z,8.48
2022-11-28T13:10:31.804Z,6.50
2022-11-28T13:13:03.237Z,5.70
2022-11-28T13:16:06.697Z,5.70
2022-11-28T13:18:40.736Z,4.75
2022-11-28T13:21:12.925Z,5.00
2022-11-28T13:23:53.496Z,4.53
2022-11-28T13:26:45.930Z,4.60
2022-11-28T13:29:52.092Z,4.55
2022-11-28T13:32:59.256Z,4.65
2022-11-28T13:35:30.434Z,4.60
2022-11-28T13:38:35.974Z,3.80
2022-11-28T13:45:07.167Z,3.47
2022-11-28T13:47:37.897Z,3.45
2022-11-28T13:51:01.379Z,3.47
2022-11-28T13:53:35.740Z,3.50
2022-11-28T13:56:08.185Z,3.33
2022-11-28T13:58:52.811Z,3.40
2022-11-28T14:01:44.627Z,3.70
2022-11-28T14:04:15.251Z,4.43
2022-11-28T14:06:46.353Z,2.97
2022-11-28T14:09:40.043Z,3.38
2022-11-28T14:12:31.198Z,4.03
2022-11-28T14:15:38.387Z,3.80
2022-11-28T14:19:02.039Z,4.35
2022-11-28T14:22:16.199Z,3.67
2022-11-28T14:25:04.426Z,3.75
2022-11-28T14:27:34.622Z,2.90
2022-11-28T14:30:34.353Z,3.90
2022-11-28T14:33:36.817Z,3.95
2022-11-28T14:36:41.744Z,4.10
2022-11-28T14:39:15.402Z,4.22
2022-11-28T14:42:09.752Z,3.83
2022-11-28T14:44:50.527Z,3.35
2022-11-28T14:47:42.722Z,3.67
2022-11-28T14:50:13.275Z,3.30
2022-11-28T14:52:48.246Z,3.25
2022-11-28T14:55:22.492Z,5.30
2022-11-28T14:58:05.186Z,3.80
2022-11-28T15:00:49.359Z,3.50
2022-11-28T15:03:19.663Z,3.40
2022-11-28T15:06:02.922Z,4.50
2022-11-28T15:08:45.513Z,4.45
2022-11-28T15:11:25.635Z,4.32
2022-11-28T15:14:25.640Z,4.50
2022-11-28T15:17:06.807Z,5.18
2022-11-28T15:19:43.126Z,25.52
2022-11-28T15:22:41.905Z,31.55
2022-11-28T15:25:22.121Z,33.60
2022-11-28T15:27:48.978Z,21.75
2022-11-28T15:30:26.278Z,14.90
2022-11-28T15:33:00.021Z,13.65
2022-11-28T15:35:27.841Z,10.95
2022-11-28T15:37:57.281Z,7.88
2022-11-28T15:40:38.015Z,8.02
2022-11-28T15:43:30.499Z,7.07
2022-11-28T15:46:03.901Z,8.13
2022-11-28T15:49:21.927Z,11.68
2022-11-28T15:51:59.621Z,15.50
2022-11-28T15:54:40.828Z,16.15
2022-11-28T15:57:23.888Z,15.10
2022-11-28T15:59:50.552Z,11.32
2022-11-28T16:02:36.484Z,9.70
2022-11-28T16:05:11.019Z,7.57
2022-11-28T16:07:42.526Z,6.90
2022-11-28T16:10:33.141Z,6.15
2022-11-28T16:13:10.605Z,6.60
2022-11-28T16:15:49.860Z,6.72
2022-11-28T16:18:29.086Z,6.78
2022-11-28T16:21:12.910Z,5.80
2022-11-28T16:23:43.474Z,6.32
2022-11-28T16:26:25.614Z,5.03
2022-11-28T16:29:14.683Z,5.50
2022-11-28T16:31:43.949Z,5.28
2022-11-28T16:34:14.886Z,5.03
2022-11-28T16:36:47.950Z,4.68
2022-11-28T16:39:17.697Z,5.25
2022-11-28T16:42:17.091Z,5.20
2022-11-28T16:44:44.838Z,4.68
2022-11-28T16:47:30.176Z,5.53
2022-11-28T16:50:17.886Z,5.82
2022-11-28T16:52:52.507Z,6.25
2022-11-28T16:55:32.221Z,5.78
2022-11-28T16:58:20.617Z,7.65
2022-11-28T17:00:59.752Z,8.60
2022-11-28T17:03:53.646Z,7.70
2022-11-28T17:06:33.765Z,8.25
2022-11-28T17:09:01.626Z,8.25
2022-11-28T17:11:35.065Z,9.32
2022-11-28T17:14:10.158Z,10.40
2022-11-28T17:16:47.057Z,10.10
2022-11-28T17:19:19.794Z,9.50
2022-11-28T17:21:51.992Z,10.20
2022-11-28T17:24:26.265Z,10.23
2022-11-28T17:26:54.368Z,9.07
2022-11-28T17:29:28.533Z,9.77
2022-11-28T17:31:59.432Z,8.10
2022-11-28T17:34:31.148Z,7.85
2022-11-28T17:37:16.855Z,7.75
2022-11-28T17:40:01.950Z,7.03
2022-11-28T17:42:34.417Z,6.22
2022-11-28T17:45:00.862Z,6.22
2022-11-28T17:47:28.288Z,5.30
2022-11-28T17:49:55.452Z,5.35
2022-11-28T17:52:27.829Z,5.70
2022-11-28T17:54:58.922Z,6.70
2022-11-28T17:57:37.752Z,5.55
2022-11-28T18:00:09.039Z,5.90
2022-11-28T18:02:43.485Z,7.32
2022-11-28T18:05:18.790Z,7.90
2022-11-28T18:07:45.374Z,7.40
2022-11-28T18:10:12.341Z,7.13
2022-11-28T18:12:53.064Z,6.80
2022-11-28T18:15:28.513Z,6.28
2022-11-28T18:17:55.288Z,6.33
2022-11-28T18:20:22.107Z,7.15
2022-11-28T18:22:48.527Z,7.63
2022-11-28T18:25:15.047Z,7.15
2022-11-28T18:27:54.802Z,7.40
2022-11-28T18:30:21.253Z,7.43
2022-11-28T18:33:07.042Z,7.70
2022-11-28T18:35:33.437Z,9.07
2022-11-28T18:38:00.050Z,8.57
2022-11-28T18:40:29.625Z,9.60
2022-11-28T18:42:56.286Z,12.05
2022-11-28T18:45:22.937Z,12.18
2022-11-28T18:47:49.349Z,13.40
2022-11-28T18:50:16.899Z,12.70
2022-11-28T18:52:44.329Z,11.40
2022-11-28T18:55:10.756Z,10.18
2022-11-28T18:57:37.397Z,10.45
2022-11-28T19:00:11.713Z,12.35
2022-11-28T19:02:38.208Z,14.13
2022-11-28T19:05:05.048Z,12.98
2022-11-28T19:07:31.507Z,13.80
2022-11-28T19:09:57.920Z,15.27
2022-11-28T19:12:24.420Z,15.55
2022-11-28T19:14:52.812Z,14.45
2022-11-28T19:17:24.646Z,14.13
2022-11-28T19:19:51.752Z,14.43
2022-11-28T19:22:40.886Z,13.88
2022-11-28T19:25:08.074Z,13.75
2022-11-28T19:27:34.483Z,14.23
2022-11-28T19:30:04.007Z,13.68
2022-11-28T19:32:53.268Z,14.32
2022-11-28T19:35:39.061Z,13.65
2022-11-28T19:38:07.694Z,12.93
2022-11-28T19:40:38.102Z,13.45
2022-11-28T19:43:07.646Z,14.43
2022-11-28T19:45:40.022Z,13.88
2022-11-28T19:48:22.275Z,14.50
2022-11-28T19:50:49.842Z,14.60
2022-11-28T19:53:16.804Z,14.35
2022-11-28T19:55:44.358Z,13.73
2022-11-28T19:58:13.338Z,17.25
2022-11-28T20:00:53.856Z,15.88
2022-11-28T20:03:22.322Z,18.20
2022-11-28T20:05:55.906Z,16.60
2022-11-28T20:08:23.530Z,16.13
2022-11-28T20:11:19.786Z,16.70
2022-11-28T20:13:47.528Z,17.40
2022-11-28T20:16:34.578Z,18.90
2022-11-28T20:19:14.194Z,15.85
2022-11-28T20:21:51.421Z,14.95
2022-11-28T20:24:24.397Z,13.85
2022-11-28T20:26:51.322Z,13.63
2022-11-28T20:29:20.021Z,13.52
2022-11-28T20:31:59.654Z,13.45
2022-11-28T20:34:30.270Z,13.10
2022-11-28T20:36:59.210Z,12.52
2022-11-28T20:39:29.709Z,11.98
2022-11-28T20:42:03.752Z,13.10
2022-11-28T20:44:49.603Z,13.20
2022-11-28T20:47:18.141Z,13.38
2022-11-28T20:49:48.650Z,12.95
2022-11-28T20:52:16.155Z,13.05
2022-11-28T20:54:42.690Z,13.02
2022-11-28T20:57:25.503Z,12.00
2022-11-28T21:00:08.871Z,12.15
2022-11-28T21:02:35.370Z,12.40
2022-11-28T21:05:01.862Z,11.57
2022-11-28T21:07:34.497Z,11.65
2022-11-28T21:10:03.683Z,11.88
2022-11-28T21:12:30.067Z,13.32
2022-11-28T21:14:56.829Z,12.68
2022-11-28T21:17:23.390Z,12.35
2022-11-28T21:19:49.849Z,11.10
2022-11-28T21:22:23.399Z,11.95
2022-11-28T21:24:51.268Z,11.55
2022-11-28T21:27:19.855Z,12.25
2022-11-28T21:30:01.889Z,11.75
2022-11-28T21:32:29.321Z,11.45
2022-11-28T21:35:01.051Z,11.65
2022-11-28T21:37:31.504Z,12.07
2022-11-28T21:39:57.974Z,12.90
2022-11-28T21:42:26.458Z,13.10
2022-11-28T21:44:52.936Z,12.77
2022-11-28T21:47:19.350Z,12.20
2022-11-28T21:49:47.077Z,12.35
2022-11-28T21:52:13.541Z,11.82
2022-11-28T21:54:42.092Z,11.70
2022-11-28T21:57:08.504Z,11.27
2022-11-28T21:59:35.021Z,12.63
2022-11-28T22:02:08.570Z,11.93
2022-11-28T22:07:05.097Z,11.68
2022-11-28T22:09:31.528Z,10.95
2022-11-28T22:11:57.941Z,12.35
2022-11-28T22:14:48.139Z,11.40
2022-11-28T22:17:14.652Z,10.32
2022-11-28T22:19:41.418Z,11.73
2022-11-28T22:22:14.078Z,10.60
2022-11-28T22:24:40.491Z,10.05
2022-11-28T22:27:06.907Z,10.15
2022-11-28T22:29:33.593Z,9.15
2022-11-28T22:32:00.198Z,9.27
2022-11-28T22:34:26.729Z,10.02
2022-11-28T22:37:11.503Z,8.85
2022-11-28T22:39:47.240Z,9.80
2022-11-28T22:42:13.879Z,8.90
2022-11-28T22:44:48.464Z,9.38
2022-11-28T22:47:14.933Z,9.15
2022-11-28T22:49:42.361Z,8.80
2022-11-28T22:52:12.863Z,9.27
2022-11-28T22:54:39.302Z,8.88
2022-11-28T22:57:13.746Z,10.18
2022-11-28T22:59:40.202Z,9.85
2022-11-28T23:02:24.050Z,9.40
2022-11-28T23:05:01.947Z,7.93
2022-11-28T23:07:35.763Z,8.85
2022-11-28T23:10:02.428Z,9.40
2022-11-28T23:12:28.918Z,7.82
2022-11-28T23:14:55.333Z,7.78
2022-11-28T23:17:41.096Z,8.20
2022-11-28T23:20:15.808Z,8.23
2022-11-28T23:22:44.411Z,7.93
2022-11-28T23:25:14.067Z,8.57
2022-11-28T23:27:42.521Z,9.15
2022-11-28T23:30:10.387Z,10.13
2022-11-28T23:32:59.634Z,10.05
2022-11-28T23:35:28.158Z,8.68
2022-11-28T23:37:55.646Z,8.85
2022-11-28T23:40:22.261Z,8.43
2022-11-28T23:42:49.693Z,8.07
2022-11-28T23:45:17.217Z,8.63
2022-11-28T23:47:51.763Z,7.82
2022-11-28T23:50:19.402Z,9.07
2022-11-28T23:52:45.845Z,8.63
2022-11-28T23:55:12.366Z,8.80
2022-11-28T23:57:38.761Z,9.27
